createdAt,value
2023-03-25T00:00:04.111Z,957.36
2023-03-25T00:01:04.080Z,957.40
2023-03-25T00:02:04.092Z,957.44
2023-03-25T00:03:04.048Z,957.46
2023-03-25T00:04:04.020Z,957.49
2023-03-25T00:05:04.032Z,957.52
2023-03-25T00:06:03.956Z,957.59
2023-03-25T00:07:03.905Z,957.70
2023-03-25T00:08:03.883Z,957.84
2023-03-25T00:09:03.905Z,957.84
2023-03-25T00:10:03.821Z,957.93
2023-03-25T00:11:03.789Z,957.98
2023-03-25T00:12:03.766Z,957.93
2023-03-25T00:13:03.734Z,958.09
2023-03-25T00:14:03.706Z,958.14
2023-03-25T00:15:03.674Z,957.96
2023-03-25T00:16:03.665Z,957.99
2023-03-25T00:17:03.636Z,958.22
2023-03-25T00:18:03.650Z,957.91
2023-03-25T00:19:03.559Z,958.08
2023-03-25T00:20:03.549Z,958.03
2023-03-25T00:21:03.505Z,958.09
2023-03-25T00:22:03.476Z,958.05
2023-03-25T00:23:03.439Z,957.91
2023-03-25T00:24:03.437Z,957.92
2023-03-25T00:25:03.385Z,957.92
2023-03-25T00:26:03.354Z,958.00
2023-03-25T00:27:03.322Z,958.02
2023-03-25T00:28:03.311Z,958.05
2023-03-25T00:29:03.270Z,958.07
2023-03-25T00:30:03.233Z,958.15
2023-03-25T00:31:03.315Z,958.14
2023-03-25T00:32:03.171Z,958.13
2023-03-25T00:33:03.172Z,957.89
2023-03-25T00:34:03.111Z,957.74
2023-03-25T00:35:03.082Z,957.77
2023-03-25T00:36:03.141Z,957.71
2023-03-25T00:37:03.020Z,957.45
2023-03-25T00:38:03.002Z,957.46
2023-03-25T00:39:02.960Z,957.62
2023-03-25T00:40:02.941Z,957.51
2023-03-25T00:41:02.899Z,957.52
2023-03-25T00:42:02.870Z,957.56
2023-03-25T00:43:02.843Z,957.59
2023-03-25T00:44:02.810Z,957.55
2023-03-25T00:45:02.778Z,957.58
2023-03-25T00:46:02.765Z,957.60
2023-03-25T00:47:02.716Z,957.60
2023-03-25T00:48:03.986Z,957.65
2023-03-25T00:49:02.682Z,957.57
2023-03-25T00:50:02.626Z,957.64
2023-03-25T00:51:02.604Z,957.60
2023-03-25T00:52:02.587Z,957.58
2023-03-25T00:53:02.547Z,957.60
2023-03-25T00:54:02.506Z,957.53
2023-03-25T00:55:02.478Z,957.51
2023-03-25T00:56:02.447Z,957.53
2023-03-25T00:57:02.465Z,957.51
2023-03-25T00:58:02.385Z,957.55
2023-03-25T00:59:02.369Z,957.55
2023-03-25T01:00:02.348Z,957.52
2023-03-25T01:01:02.295Z,957.49
2023-03-25T01:02:02.268Z,957.44
2023-03-25T01:03:02.288Z,957.41
2023-03-25T01:04:02.203Z,957.37
2023-03-25T01:05:02.176Z,957.37
2023-03-25T01:06:02.145Z,957.29
2023-03-25T01:07:02.113Z,957.31
2023-03-25T01:08:02.119Z,957.30
2023-03-25T01:09:02.050Z,957.23
2023-03-25T01:10:02.052Z,957.20
2023-03-25T01:11:01.989Z,957.22
2023-03-25T01:12:01.964Z,957.20
2023-03-25T01:13:01.928Z,957.23
2023-03-25T01:14:01.901Z,957.17
2023-03-25T01:15:01.870Z,957.24
2023-03-25T01:16:01.877Z,957.17
2023-03-25T01:17:01.818Z,957.23
2023-03-25T01:18:01.820Z,957.10
2023-03-25T01:19:01.758Z,957.14
2023-03-25T01:20:01.740Z,957.16
2023-03-25T01:21:01.690Z,957.21
2023-03-25T01:22:01.658Z,957.22
2023-03-25T01:23:01.627Z,957.23
2023-03-25T01:24:01.638Z,957.25
2023-03-25T01:25:01.566Z,957.24
2023-03-25T01:26:01.539Z,957.23
2023-03-25T01:27:01.528Z,957.17
2023-03-25T01:28:01.524Z,957.17
2023-03-25T01:29:01.462Z,957.18
2023-03-25T01:30:01.463Z,957.19
2023-03-25T01:31:01.455Z,957.24
2023-03-25T01:32:01.356Z,957.26
2023-03-25T01:33:01.356Z,957.25
2023-03-25T01:34:01.307Z,957.24
2023-03-25T01:35:01.290Z,957.31
2023-03-25T01:36:01.293Z,957.34
2023-03-25T01:37:01.204Z,957.32
2023-03-25T01:38:01.177Z,957.36
2023-03-25T01:39:01.142Z,957.34
2023-03-25T01:40:01.143Z,957.34
2023-03-25T01:41:01.085Z,957.35
2023-03-25T01:42:01.076Z,957.33
2023-03-25T01:43:01.026Z,957.32
2023-03-25T01:44:01.001Z,957.33
2023-03-25T01:45:00.963Z,957.32
2023-03-25T01:46:00.934Z,957.33
2023-03-25T01:47:00.921Z,957.33
2023-03-25T01:48:00.882Z,957.30
2023-03-25T01:49:00.842Z,957.28
2023-03-25T01:50:00.815Z,957.25
2023-03-25T01:51:00.785Z,957.27
2023-03-25T01:52:00.755Z,957.19
2023-03-25T01:53:00.722Z,957.19
2023-03-25T01:54:00.692Z,957.19
2023-03-25T01:55:00.661Z,957.18
2023-03-25T01:56:00.655Z,957.22
2023-03-25T01:57:00.731Z,957.29
2023-03-25T01:58:00.571Z,957.20
2023-03-25T01:59:00.540Z,957.25
2023-03-25T02:00:00.514Z,957.24
2023-03-25T02:01:00.515Z,957.29
2023-03-25T02:02:00.450Z,957.26
2023-03-25T02:03:00.459Z,957.29
2023-03-25T02:04:00.456Z,957.33
2023-03-25T02:05:00.370Z,957.33
2023-03-25T02:06:00.332Z,957.41
2023-03-25T02:07:00.298Z,957.37
2023-03-25T02:08:00.270Z,957.36
2023-03-25T02:09:00.237Z,957.37
2023-03-25T02:10:00.208Z,957.38
2023-03-25T02:11:00.177Z,957.39
2023-03-25T02:12:00.172Z,957.31
2023-03-25T02:13:00.127Z,957.29
2023-03-25T02:14:00.131Z,957.27
2023-03-25T02:15:00.091Z,957.19
2023-03-25T02:16:00.083Z,957.22
2023-03-25T02:17:00.000Z,957.23
2023-03-25T02:18:00.006Z,957.22
2023-03-25T02:18:59.936Z,957.22
2023-03-25T02:19:59.908Z,957.30
2023-03-25T02:20:59.877Z,957.32
2023-03-25T02:21:59.849Z,957.20
2023-03-25T02:22:59.816Z,957.17
2023-03-25T02:23:59.787Z,957.16
2023-03-25T02:24:59.757Z,957.16
2023-03-25T02:25:59.730Z,957.14
2023-03-25T02:26:59.698Z,957.13
2023-03-25T02:27:59.689Z,957.03
2023-03-25T02:28:59.640Z,956.97
2023-03-25T02:29:59.611Z,956.96
2023-03-25T02:30:59.577Z,956.96
2023-03-25T02:31:59.575Z,956.94
2023-03-25T02:32:59.556Z,956.95
2023-03-25T02:33:59.487Z,956.94
2023-03-25T02:34:59.457Z,956.99
2023-03-25T02:35:59.475Z,956.90
2023-03-25T02:36:59.397Z,956.92
2023-03-25T02:37:59.366Z,956.91
2023-03-25T02:38:59.336Z,956.89
2023-03-25T02:39:59.310Z,956.91
2023-03-25T02:40:59.292Z,956.87
2023-03-25T02:41:59.260Z,956.86
2023-03-25T02:42:59.218Z,956.90
2023-03-25T02:43:59.221Z,956.89
2023-03-25T02:44:59.155Z,956.92
2023-03-25T02:45:59.158Z,956.93
2023-03-25T02:46:59.117Z,956.85
2023-03-25T02:47:59.117Z,956.92
2023-03-25T02:48:59.037Z,956.94
2023-03-25T02:49:59.012Z,956.85
2023-03-25T02:50:58.976Z,956.90
2023-03-25T02:51:58.947Z,956.88
2023-03-25T02:52:58.918Z,957.02
2023-03-25T02:53:58.892Z,957.04
2023-03-25T02:54:58.866Z,957.12
2023-03-25T02:55:58.825Z,957.03
2023-03-25T02:56:58.835Z,957.18
2023-03-25T02:57:58.767Z,957.26
2023-03-25T02:58:58.750Z,957.35
2023-03-25T02:59:58.722Z,957.45
2023-03-25T03:00:58.869Z,957.45
2023-03-25T03:01:58.715Z,957.44
2023-03-25T03:02:58.766Z,957.43
2023-03-25T03:03:58.594Z,957.55
2023-03-25T03:04:58.558Z,957.69
2023-03-25T03:05:58.525Z,957.76
2023-03-25T03:06:58.496Z,958.07
2023-03-25T03:07:58.466Z,958.35
2023-03-25T03:08:58.440Z,958.31
2023-03-25T03:09:58.408Z,958.45
2023-03-25T03:10:58.377Z,958.48
2023-03-25T03:11:58.346Z,958.29
2023-03-25T03:12:58.316Z,958.16
2023-03-25T03:13:58.286Z,958.33
2023-03-25T03:14:58.256Z,958.29
2023-03-25T03:15:58.286Z,958.39
2023-03-25T03:16:58.289Z,958.42
2023-03-25T03:17:58.313Z,958.56
2023-03-25T03:18:58.137Z,958.48
2023-03-25T03:19:58.111Z,958.47
2023-03-25T03:20:58.072Z,958.45
2023-03-25T03:21:58.042Z,958.62
2023-03-25T03:22:58.011Z,958.66
2023-03-25T03:23:57.987Z,958.56
2023-03-25T03:24:57.952Z,958.66
2023-03-25T03:25:57.917Z,958.73
2023-03-25T03:26:57.887Z,958.62
2023-03-25T03:27:57.854Z,958.64
2023-03-25T03:28:57.827Z,958.59
2023-03-25T03:29:57.795Z,958.63
2023-03-25T03:30:57.803Z,958.41
2023-03-25T03:32:06.004Z,958.46
2023-03-25T03:32:57.777Z,958.44
2023-03-25T03:33:57.767Z,958.44
2023-03-25T03:34:57.636Z,958.41
2023-03-25T03:35:57.748Z,958.46
2023-03-25T03:36:57.579Z,958.36
2023-03-25T03:37:57.551Z,958.41
2023-03-25T03:38:57.515Z,958.42
2023-03-25T03:39:57.486Z,958.42
2023-03-25T03:40:57.450Z,958.53
2023-03-25T03:41:57.427Z,958.44
2023-03-25T03:42:57.396Z,958.41
2023-03-25T03:43:57.358Z,958.43
2023-03-25T03:44:57.321Z,958.42
2023-03-25T03:45:57.323Z,958.39
2023-03-25T03:46:57.263Z,958.42
2023-03-25T03:47:57.311Z,958.43
2023-03-25T03:48:57.200Z,958.53
2023-03-25T03:49:57.173Z,958.49
2023-03-25T03:50:57.138Z,958.41
2023-03-25T03:51:57.103Z,958.36
2023-03-25T03:52:57.075Z,958.32
2023-03-25T03:53:57.038Z,958.28
2023-03-25T03:54:57.022Z,958.35
2023-03-25T03:55:56.978Z,958.31
2023-03-25T03:56:57.020Z,958.27
2023-03-25T03:57:56.916Z,958.25
2023-03-25T03:58:56.884Z,958.29
2023-03-25T03:59:56.856Z,958.31
2023-03-25T04:00:56.820Z,958.28
2023-03-25T04:01:56.829Z,958.26
2023-03-25T04:02:56.860Z,958.22
2023-03-25T04:03:56.769Z,958.21
2023-03-25T04:04:56.694Z,958.10
2023-03-25T04:05:56.661Z,958.14
2023-03-25T04:06:56.634Z,958.14
2023-03-25T04:07:56.600Z,958.09
2023-03-25T04:08:56.565Z,958.07
2023-03-25T04:09:56.556Z,957.98
2023-03-25T04:10:56.519Z,958.06
2023-03-25T04:11:56.471Z,958.02
2023-03-25T04:12:56.441Z,958.07
2023-03-25T04:13:56.412Z,958.13
2023-03-25T04:14:56.387Z,958.12
2023-03-25T04:15:56.392Z,958.13
2023-03-25T04:16:56.316Z,958.09
2023-03-25T04:17:56.305Z,958.03
2023-03-25T04:18:56.252Z,957.96
2023-03-25T04:19:56.245Z,957.96
2023-03-25T04:20:56.240Z,957.88
2023-03-25T04:21:56.161Z,957.88
2023-03-25T04:22:56.125Z,957.91
2023-03-25T04:23:56.096Z,957.87
2023-03-25T04:24:56.088Z,957.93
2023-03-25T04:25:56.036Z,957.90
2023-03-25T04:26:56.002Z,957.92
2023-03-25T04:27:55.970Z,957.88
2023-03-25T04:28:55.940Z,958.00
2023-03-25T04:29:55.907Z,957.99
2023-03-25T04:30:55.934Z,957.99
2023-03-25T04:31:55.897Z,958.03
2023-03-25T04:32:55.876Z,958.11
2023-03-25T04:33:55.781Z,958.12
2023-03-25T04:34:55.758Z,958.09
2023-03-25T04:35:55.810Z,958.11
2023-03-25T04:36:57.995Z,958.05
2023-03-25T04:37:55.655Z,957.99
2023-03-25T04:38:55.625Z,958.02
2023-03-25T04:39:55.593Z,957.96
2023-03-25T04:40:55.572Z,958.00
2023-03-25T04:41:55.532Z,957.96
2023-03-25T04:42:55.501Z,957.99
2023-03-25T04:43:55.467Z,957.98
2023-03-25T04:44:55.441Z,957.97
2023-03-25T04:45:55.632Z,958.01
2023-03-25T04:46:55.379Z,957.95
2023-03-25T04:47:55.368Z,957.83
2023-03-25T04:48:55.317Z,957.83
2023-03-25T04:49:55.285Z,957.88
2023-03-25T04:50:55.252Z,957.88
2023-03-25T04:51:55.240Z,957.87
2023-03-25T04:52:55.190Z,957.86
2023-03-25T04:53:55.157Z,957.87
2023-03-25T04:54:55.127Z,957.84
2023-03-25T04:55:55.101Z,957.87
2023-03-25T04:56:55.124Z,957.92
2023-03-25T04:57:55.038Z,957.86
2023-03-25T04:58:55.009Z,957.86
2023-03-25T04:59:54.969Z,957.89
2023-03-25T05:00:54.980Z,957.88
2023-03-25T05:01:54.906Z,957.89
2023-03-25T05:02:54.909Z,957.89
2023-03-25T05:03:54.845Z,957.89
2023-03-25T05:04:54.814Z,957.84
2023-03-25T05:05:54.780Z,957.87
2023-03-25T05:06:54.749Z,957.84
2023-03-25T05:07:54.753Z,957.91
2023-03-25T05:08:54.686Z,957.89
2023-03-25T05:09:54.658Z,957.91
2023-03-25T05:10:54.674Z,957.91
2023-03-25T05:11:54.591Z,957.90
2023-03-25T05:12:54.560Z,957.91
2023-03-25T05:13:54.542Z,957.90
2023-03-25T05:14:54.498Z,957.94
2023-03-25T05:15:54.645Z,957.94
2023-03-25T05:16:54.436Z,957.99
2023-03-25T05:17:54.440Z,957.97
2023-03-25T05:18:54.374Z,958.03
2023-03-25T05:19:54.340Z,958.05
2023-03-25T05:20:54.309Z,958.04
2023-03-25T05:21:54.284Z,958.09
2023-03-25T05:22:54.247Z,958.11
2023-03-25T05:23:54.239Z,958.13
2023-03-25T05:24:54.185Z,958.12
2023-03-25T05:25:54.430Z,958.21
2023-03-25T05:26:54.127Z,958.18
2023-03-25T05:27:54.096Z,958.24
2023-03-25T05:28:54.060Z,958.30
2023-03-25T05:29:54.027Z,958.33
2023-03-25T05:30:53.999Z,958.22
2023-03-25T05:31:54.008Z,958.22
2023-03-25T05:32:56.577Z,958.19
2023-03-25T05:33:53.928Z,958.22
2023-03-25T05:34:53.900Z,958.14
2023-03-25T05:35:53.988Z,958.13
2023-03-25T05:36:53.819Z,958.11
2023-03-25T05:37:53.862Z,958.05
2023-03-25T05:38:53.874Z,958.04
2023-03-25T05:39:53.864Z,958.03
2023-03-25T05:40:53.686Z,958.05
2023-03-25T05:41:53.654Z,958.02
2023-03-25T05:42:53.623Z,957.98
2023-03-25T05:43:53.593Z,957.99
2023-03-25T05:44:53.560Z,957.98
2023-03-25T05:45:53.822Z,957.96
2023-03-25T05:46:53.508Z,958.00
2023-03-25T05:47:53.502Z,958.04
2023-03-25T05:48:53.438Z,958.08
2023-03-25T05:49:53.404Z,958.08
2023-03-25T05:50:53.374Z,958.08
2023-03-25T05:51:53.342Z,958.10
2023-03-25T05:52:53.317Z,958.10
2023-03-25T05:53:53.282Z,958.10
2023-03-25T05:54:53.257Z,958.10
2023-03-25T05:55:53.258Z,958.15
2023-03-25T05:56:53.269Z,958.17
2023-03-25T05:57:53.160Z,958.15
2023-03-25T05:58:53.142Z,958.19
2023-03-25T05:59:53.101Z,958.19
2023-03-25T06:00:53.071Z,958.14
2023-03-25T06:01:53.040Z,958.16
2023-03-25T06:02:53.130Z,958.14
2023-03-25T06:03:53.026Z,958.13
2023-03-25T06:04:52.947Z,958.15
2023-03-25T06:05:52.921Z,958.14
2023-03-25T06:06:52.884Z,958.15
2023-03-25T06:07:52.862Z,958.17
2023-03-25T06:08:52.844Z,958.17
2023-03-25T06:09:52.798Z,958.17
2023-03-25T06:10:52.762Z,958.15
2023-03-25T06:11:52.774Z,958.17
2023-03-25T06:12:52.703Z,958.11
2023-03-25T06:13:52.697Z,958.06
2023-03-25T06:14:52.647Z,958.03
2023-03-25T06:15:52.900Z,958.05
2023-03-25T06:16:52.581Z,958.09
2023-03-25T06:17:52.648Z,958.11
2023-03-25T06:18:52.531Z,958.02
2023-03-25T06:19:52.512Z,958.01
2023-03-25T06:20:52.460Z,958.11
2023-03-25T06:21:52.430Z,958.11
2023-03-25T06:22:52.398Z,958.05
2023-03-25T06:23:52.366Z,958.04
2023-03-25T06:24:52.338Z,958.07
2023-03-25T06:25:52.611Z,958.09
2023-03-25T06:26:52.280Z,958.02
2023-03-25T06:27:52.268Z,958.09
2023-03-25T06:28:52.218Z,958.14
2023-03-25T06:29:52.191Z,958.16
2023-03-25T06:30:52.221Z,958.17
2023-03-25T06:31:52.127Z,958.16
2023-03-25T06:32:52.207Z,958.13
2023-03-25T06:33:52.069Z,958.15
2023-03-25T06:34:52.034Z,958.12
2023-03-25T06:35:52.291Z,958.11
2023-03-25T06:36:51.985Z,958.06
2023-03-25T06:37:51.945Z,958.08
2023-03-25T06:38:51.922Z,958.07
2023-03-25T06:39:51.882Z,958.05
2023-03-25T06:40:51.854Z,958.05
2023-03-25T06:41:51.822Z,958.02
2023-03-25T06:42:51.794Z,958.01
2023-03-25T06:43:51.783Z,958.03
2023-03-25T06:44:51.734Z,957.96
2023-03-25T06:45:51.933Z,957.93
2023-03-25T06:46:51.672Z,957.98
2023-03-25T06:47:51.667Z,957.96
2023-03-25T06:48:51.611Z,958.07
2023-03-25T06:49:51.584Z,958.06
2023-03-25T06:50:51.554Z,958.02
2023-03-25T06:51:51.520Z,958.03
2023-03-25T06:52:51.489Z,958.06
2023-03-25T06:53:51.462Z,958.10
2023-03-25T06:54:51.428Z,958.11
2023-03-25T06:55:51.577Z,958.06
2023-03-25T06:56:51.408Z,958.08
2023-03-25T06:57:51.339Z,958.05
2023-03-25T06:58:51.312Z,958.09
2023-03-25T06:59:51.302Z,958.10
2023-03-25T07:00:51.246Z,958.12
2023-03-25T07:01:51.273Z,958.06
2023-03-25T07:02:51.219Z,958.10
2023-03-25T07:03:51.158Z,958.09
2023-03-25T07:04:51.176Z,958.05
2023-03-25T07:05:51.273Z,958.06
2023-03-25T07:06:51.072Z,958.03
2023-03-25T07:07:51.039Z,958.08
2023-03-25T07:08:51.006Z,958.10
2023-03-25T07:09:50.978Z,958.06
2023-03-25T07:10:50.950Z,958.10
2023-03-25T07:11:50.924Z,958.04
2023-03-25T07:12:50.888Z,958.04
2023-03-25T07:13:50.858Z,958.06
2023-03-25T07:14:50.826Z,958.07
2023-03-25T07:15:51.096Z,958.09
2023-03-25T07:16:50.766Z,958.08
2023-03-25T07:17:50.764Z,958.06
2023-03-25T07:18:50.716Z,958.07
2023-03-25T07:19:50.691Z,958.06
2023-03-25T07:20:50.647Z,958.04
2023-03-25T07:21:50.620Z,958.04
2023-03-25T07:22:50.590Z,958.02
2023-03-25T07:23:50.560Z,958.09
2023-03-25T07:24:50.529Z,958.09
2023-03-25T07:25:50.736Z,958.16
2023-03-25T07:26:50.469Z,958.13
2023-03-25T07:27:50.440Z,958.13
2023-03-25T07:28:50.414Z,958.12
2023-03-25T07:29:50.381Z,958.17
2023-03-25T07:30:50.350Z,958.20
2023-03-25T07:31:50.372Z,958.16
2023-03-25T07:32:50.389Z,958.20
2023-03-25T07:33:50.275Z,958.19
2023-03-25T07:34:50.238Z,958.23
2023-03-25T07:35:50.516Z,958.19
2023-03-25T07:36:50.175Z,958.22
2023-03-25T07:37:50.143Z,958.17
2023-03-25T07:38:50.113Z,958.17
2023-03-25T07:39:50.092Z,958.16
2023-03-25T07:40:50.519Z,958.14
2023-03-25T07:41:50.024Z,958.16
2023-03-25T07:42:49.994Z,958.15
2023-03-25T07:43:49.964Z,958.19
2023-03-25T07:44:49.935Z,958.26
2023-03-25T07:45:49.971Z,958.22
2023-03-25T07:46:49.879Z,958.19
2023-03-25T07:47:49.900Z,958.21
2023-03-25T07:48:49.820Z,958.20
2023-03-25T07:49:49.788Z,958.22
2023-03-25T07:50:49.761Z,958.20
2023-03-25T07:51:49.728Z,958.16
2023-03-25T07:52:49.698Z,958.19
2023-03-25T07:53:49.672Z,958.20
2023-03-25T07:54:49.639Z,958.20
2023-03-25T07:55:49.790Z,958.22
2023-03-25T07:56:49.608Z,958.24
2023-03-25T07:57:49.562Z,958.18
2023-03-25T07:58:49.520Z,958.27
2023-03-25T07:59:49.496Z,958.24
2023-03-25T08:00:49.475Z,958.22
2023-03-25T08:01:49.463Z,958.22
2023-03-25T08:02:49.421Z,958.28
2023-03-25T08:03:49.494Z,958.20
2023-03-25T08:04:49.343Z,958.25
2023-03-25T08:05:49.474Z,958.27
2023-03-25T08:06:49.284Z,958.27
2023-03-25T08:07:49.260Z,958.26
2023-03-25T08:08:49.224Z,958.24
2023-03-25T08:09:49.196Z,958.22
2023-03-25T08:10:49.162Z,958.17
2023-03-25T08:11:49.140Z,958.23
2023-03-25T08:12:49.104Z,958.20
2023-03-25T08:13:49.076Z,958.14
2023-03-25T08:14:49.044Z,958.18
2023-03-25T08:15:49.268Z,958.17
2023-03-25T08:16:49.026Z,958.17
2023-03-25T08:17:48.989Z,958.15
2023-03-25T08:18:48.924Z,958.17
2023-03-25T08:19:48.912Z,958.14
2023-03-25T08:20:48.865Z,958.14
2023-03-25T08:21:48.840Z,958.12
2023-03-25T08:22:48.832Z,958.17
2023-03-25T08:23:48.779Z,958.17
2023-03-25T08:24:48.753Z,958.18
2023-03-25T08:25:48.848Z,958.20
2023-03-25T08:26:48.691Z,958.16
2023-03-25T08:27:48.658Z,958.17
2023-03-25T08:28:48.629Z,958.22
2023-03-25T08:29:48.599Z,958.17
2023-03-25T08:30:48.568Z,958.25
2023-03-25T08:31:48.647Z,958.27
2023-03-25T08:32:48.577Z,958.25
2023-03-25T08:33:48.480Z,958.22
2023-03-25T08:34:48.450Z,958.14
2023-03-25T08:35:48.576Z,958.18
2023-03-25T08:36:48.389Z,958.14
2023-03-25T08:37:48.362Z,958.21
2023-03-25T08:38:48.330Z,958.18
2023-03-25T08:39:48.308Z,958.21
2023-03-25T08:40:48.278Z,958.21
2023-03-25T08:41:48.268Z,958.19
2023-03-25T08:42:48.213Z,958.19
2023-03-25T08:43:48.185Z,958.19
2023-03-25T08:44:48.152Z,958.18
2023-03-25T08:45:48.170Z,958.15
2023-03-25T08:46:48.097Z,958.16
2023-03-25T08:47:48.097Z,958.16
2023-03-25T08:48:49.884Z,958.13
2023-03-25T08:49:48.012Z,958.19
2023-03-25T08:50:47.980Z,958.11
2023-03-25T08:51:48.036Z,958.10
2023-03-25T08:52:47.923Z,958.07
2023-03-25T08:53:47.899Z,958.12
2023-03-25T08:54:47.881Z,958.08
2023-03-25T08:55:48.049Z,958.09
2023-03-25T08:56:47.869Z,958.12
2023-03-25T08:57:47.780Z,958.06
2023-03-25T08:58:47.747Z,958.09
2023-03-25T08:59:47.720Z,958.05
2023-03-25T09:00:47.690Z,958.08
2023-03-25T09:01:47.693Z,958.00
2023-03-25T09:02:47.662Z,957.96
2023-03-25T09:03:47.607Z,958.00
2023-03-25T09:04:47.582Z,958.01
2023-03-25T09:05:47.559Z,957.92
2023-03-25T09:07:11.688Z,958.02
2023-03-25T09:07:47.510Z,957.97
2023-03-25T09:08:50.164Z,957.84
2023-03-25T09:09:47.434Z,957.91
2023-03-25T09:10:47.401Z,957.94
2023-03-25T09:11:47.373Z,957.95
2023-03-25T09:12:47.343Z,957.95
2023-03-25T09:13:47.319Z,958.03
2023-03-25T09:14:47.284Z,957.97
2023-03-25T09:15:47.294Z,957.95
2023-03-25T09:16:47.235Z,957.97
2023-03-25T09:17:47.208Z,958.05
2023-03-25T09:18:47.167Z,958.06
2023-03-25T09:19:47.138Z,957.99
2023-03-25T09:20:47.107Z,958.04
2023-03-25T09:21:47.087Z,958.12
2023-03-25T09:22:47.056Z,958.04
2023-03-25T09:23:47.042Z,958.09
2023-03-25T09:24:46.995Z,958.02
2023-03-25T09:25:46.961Z,958.07
2023-03-25T09:26:46.931Z,958.12
2023-03-25T09:27:46.905Z,958.14
2023-03-25T09:28:46.871Z,958.11
2023-03-25T09:29:46.851Z,958.12
2023-03-25T09:30:46.820Z,958.01
2023-03-25T09:31:46.785Z,958.02
2023-03-25T09:32:46.804Z,958.03
2023-03-25T09:33:46.726Z,958.01
2023-03-25T09:34:46.697Z,958.01
2023-03-25T09:35:46.682Z,958.03
2023-03-25T09:36:46.664Z,958.03
2023-03-25T09:37:46.611Z,958.08
2023-03-25T09:38:46.581Z,958.02
2023-03-25T09:39:46.575Z,957.91
2023-03-25T09:40:46.542Z,957.94
2023-03-25T09:41:46.504Z,958.00
2023-03-25T09:42:46.471Z,958.03
2023-03-25T09:43:46.438Z,957.93
2023-03-25T09:44:46.407Z,957.97
2023-03-25T09:45:46.382Z,957.93
2023-03-25T09:46:46.391Z,957.91
2023-03-25T09:47:46.388Z,957.92
2023-03-25T09:48:46.294Z,958.00
2023-03-25T09:49:46.272Z,958.01
2023-03-25T09:50:46.248Z,958.00
2023-03-25T09:51:46.211Z,957.98
2023-03-25T09:52:46.178Z,957.93
2023-03-25T09:53:46.158Z,958.00
2023-03-25T09:54:46.124Z,958.03
2023-03-25T09:55:46.114Z,958.08
2023-03-25T09:56:46.111Z,958.01
2023-03-25T09:57:46.055Z,958.21
2023-03-25T09:58:46.015Z,958.07
2023-03-25T09:59:45.989Z,958.06
2023-03-25T10:00:45.967Z,958.15
2023-03-25T10:01:46.019Z,958.22
2023-03-25T10:02:45.951Z,958.22
2023-03-25T10:03:45.872Z,958.22
2023-03-25T10:04:45.849Z,958.23
2023-03-25T10:05:45.818Z,958.22
2023-03-25T10:06:45.788Z,958.16
2023-03-25T10:07:45.757Z,958.18
2023-03-25T10:08:45.778Z,958.21
2023-03-25T10:09:45.702Z,958.21
2023-03-25T10:10:45.669Z,958.18
2023-03-25T10:11:45.679Z,958.11
2023-03-25T10:12:45.616Z,958.17
2023-03-25T10:13:45.595Z,958.12
2023-03-25T10:14:45.559Z,958.14
2023-03-25T10:15:45.534Z,958.18
2023-03-25T10:16:45.528Z,958.19
2023-03-25T10:17:45.545Z,958.08
2023-03-25T10:18:45.448Z,958.14
2023-03-25T10:19:45.434Z,958.14
2023-03-25T10:20:45.391Z,958.21
2023-03-25T10:21:45.375Z,958.08
2023-03-25T10:22:45.338Z,958.06
2023-03-25T10:23:45.312Z,958.01
2023-03-25T10:24:45.283Z,958.08
2023-03-25T10:25:45.255Z,958.07
2023-03-25T10:26:45.249Z,958.07
2023-03-25T10:27:45.218Z,958.15
2023-03-25T10:28:45.186Z,958.13
2023-03-25T10:29:45.161Z,958.11
2023-03-25T10:30:45.121Z,958.11
2023-03-25T10:31:45.146Z,958.10
2023-03-25T10:32:45.121Z,958.19
2023-03-25T10:33:45.037Z,958.16
2023-03-25T10:34:45.007Z,958.11
2023-03-25T10:35:45.014Z,958.07
2023-03-25T10:36:44.957Z,958.17
2023-03-25T10:37:44.938Z,958.20
2023-03-25T10:38:44.900Z,958.27
2023-03-25T10:39:44.871Z,958.17
2023-03-25T10:40:44.936Z,958.30
2023-03-25T10:41:44.821Z,958.23
2023-03-25T10:42:44.796Z,958.24
2023-03-25T10:43:44.832Z,958.19
2023-03-25T10:44:44.741Z,958.12
2023-03-25T10:45:44.738Z,958.18
2023-03-25T10:46:44.691Z,958.09
2023-03-25T10:47:44.734Z,958.07
2023-03-25T10:48:44.631Z,958.12
2023-03-25T10:49:44.601Z,958.03
2023-03-25T10:50:44.578Z,958.22
2023-03-25T10:51:44.549Z,958.16
2023-03-25T10:52:44.524Z,958.09
2023-03-25T10:53:44.498Z,958.12
2023-03-25T10:54:44.467Z,958.18
2023-03-25T10:55:44.441Z,958.07
2023-03-25T10:56:44.437Z,957.98
2023-03-25T10:57:44.387Z,957.92
2023-03-25T10:58:44.358Z,958.12
2023-03-25T10:59:44.354Z,958.07
2023-03-25T11:00:44.308Z,958.00
2023-03-25T11:01:44.279Z,958.04
2023-03-25T11:02:44.318Z,958.01
2023-03-25T11:03:44.222Z,958.01
2023-03-25T11:04:44.201Z,957.95
2023-03-25T11:05:44.169Z,957.99
2023-03-25T11:06:44.155Z,957.94
2023-03-25T11:07:44.114Z,957.90
2023-03-25T11:08:44.088Z,957.95
2023-03-25T11:09:44.060Z,957.91
2023-03-25T11:10:44.033Z,957.97
2023-03-25T11:11:44.011Z,958.08
2023-03-25T11:12:43.979Z,957.98
2023-03-25T11:13:44.005Z,958.04
2023-03-25T11:14:43.926Z,958.06
2023-03-25T11:15:43.965Z,958.02
2023-03-25T11:16:43.925Z,958.12
2023-03-25T11:17:43.862Z,958.00
2023-03-25T11:18:43.820Z,958.10
2023-03-25T11:19:43.792Z,958.06
2023-03-25T11:20:43.765Z,958.02
2023-03-25T11:21:43.735Z,958.03
2023-03-25T11:22:43.713Z,958.04
2023-03-25T11:23:43.688Z,957.99
2023-03-25T11:24:43.693Z,958.04
2023-03-25T11:25:43.648Z,958.10
2023-03-25T11:26:43.602Z,958.14
2023-03-25T11:27:43.575Z,958.16
2023-03-25T11:28:43.549Z,958.17
2023-03-25T11:29:43.530Z,958.07
2023-03-25T11:30:43.523Z,958.05
2023-03-25T11:31:43.486Z,958.09
2023-03-25T11:32:43.534Z,958.14
2023-03-25T11:33:43.420Z,958.06
2023-03-25T11:34:43.472Z,958.04
2023-03-25T11:35:43.391Z,958.03
2023-03-25T11:36:43.335Z,958.05
2023-03-25T11:37:43.307Z,958.19
2023-03-25T11:38:43.285Z,958.05
2023-03-25T11:39:43.253Z,958.04
2023-03-25T11:40:43.232Z,958.08
2023-03-25T11:41:43.202Z,958.02
2023-03-25T11:42:43.174Z,958.03
2023-03-25T11:43:43.165Z,958.12
2023-03-25T11:44:43.121Z,958.08
2023-03-25T11:45:43.094Z,958.07
2023-03-25T11:46:43.193Z,958.10
2023-03-25T11:47:43.130Z,958.20
2023-03-25T11:48:43.028Z,958.14
2023-03-25T11:49:42.985Z,958.18
2023-03-25T11:50:42.960Z,958.15
2023-03-25T11:51:42.932Z,958.04
2023-03-25T11:52:42.915Z,958.11
2023-03-25T11:53:42.881Z,958.08
2023-03-25T11:54:42.859Z,958.14
2023-03-25T11:55:42.854Z,958.11
2023-03-25T11:56:42.815Z,958.00
2023-03-25T11:57:42.800Z,957.97
2023-03-25T11:58:42.753Z,957.99
2023-03-25T11:59:42.729Z,957.85
2023-03-25T12:00:42.698Z,957.87
2023-03-25T12:01:42.674Z,957.85
2023-03-25T12:02:42.722Z,957.76
2023-03-25T12:03:42.789Z,957.86
2023-03-25T12:04:42.590Z,957.84
2023-03-25T12:05:42.593Z,957.92
2023-03-25T12:06:42.552Z,957.83
2023-03-25T12:07:42.565Z,957.83
2023-03-25T12:08:42.498Z,957.85
2023-03-25T12:09:42.459Z,957.86
2023-03-25T12:10:42.441Z,957.87
2023-03-25T12:11:42.892Z,957.83
2023-03-25T12:12:42.381Z,957.90
2023-03-25T12:13:42.352Z,957.82
2023-03-25T12:14:42.330Z,957.79
2023-03-25T12:15:42.305Z,957.76
2023-03-25T12:16:42.391Z,957.81
2023-03-25T12:17:42.303Z,957.75
2023-03-25T12:18:42.224Z,957.69
2023-03-25T12:19:42.224Z,957.69
2023-03-25T12:20:42.176Z,957.66
2023-03-25T12:21:42.152Z,957.79
2023-03-25T12:22:42.120Z,957.74
2023-03-25T12:23:42.097Z,957.74
2023-03-25T12:24:42.074Z,957.72
2023-03-25T12:25:42.039Z,957.64
2023-03-25T12:26:42.020Z,957.57
2023-03-25T12:27:41.988Z,957.57